sensor_id;sensor_type;location;lat;lon;timestamp;temperature;humidity
20459;DHT22;10388;52.314;7.938;2023-03-01T00:02:21;-4.10;99.90
20459;DHT22;10388;52.314;7.938;2023-03-01T00:04:52;-4.10;99.90
20459;DHT22;10388;52.314;7.938;2023-03-01T00:07:22;-4.10;99.90
20459;DHT22;10388;52.314;7.938;2023-03-01T00:09:53;-4.20;99.90
20459;DHT22;10388;52.314;7.938;2023-03-01T00:12:24;-4.20;99.90
20459;DHT22;10388;52.314;7.938;2023-03-01T00:14:54;-4.20;99.90
20459;DHT22;10388;52.314;7.938;2023-03-01T00:17:26;-4.20;99.90
20459;DHT22;10388;52.314;7.938;2023-03-01T00:19:57;-4.20;99.90
20459;DHT22;10388;52.314;7.938;2023-03-01T00:22:28;-4.30;99.90
20459;DHT22;10388;52.314;7.938;2023-03-01T00:24:58;-4.30;99.90
20459;DHT22;10388;52.314;7.938;2023-03-01T00:27:29;-4.30;99.90
20459;DHT22;10388;52.314;7.938;2023-03-01T00:29:59;-4.30;99.90
20459;DHT22;10388;52.314;7.938;2023-03-01T00:32:30;-4.40;99.90
20459;DHT22;10388;52.314;7.938;2023-03-01T00:35:01;-4.40;99.90
20459;DHT22;10388;52.314;7.938;2023-03-01T00:37:31;-4.40;99.90
20459;DHT22;10388;52.314;7.938;2023-03-01T00:40:02;-4.40;99.90
20459;DHT22;10388;52.314;7.938;2023-03-01T00:42:36;-4.50;99.90
20459;DHT22;10388;52.314;7.938;2023-03-01T00:45:07;-4.50;99.90
20459;DHT22;10388;52.314;7.938;2023-03-01T00:47:38;-4.50;99.90
20459;DHT22;10388;52.314;7.938;2023-03-01T00:50:09;-4.60;99.90
20459;DHT22;10388;52.314;7.938;2023-03-01T00:52:40;-4.60;99.90
20459;DHT22;10388;52.314;7.938;2023-03-01T00:55:11;-4.60;99.90
20459;DHT22;10388;52.314;7.938;2023-03-01T00:57:41;-4.60;99.90
20459;DHT22;10388;52.314;7.938;2023-03-01T04:31:20;-6.00;99.90
20459;DHT22;10388;52.314;7.938;2023-03-01T04:33:54;-6.00;99.90
20459;DHT22;10388;52.314;7.938;2023-03-01T04:36:27;-6.00;99.90
20459;DHT22;10388;52.314;7.938;2023-03-01T04:38:58;-6.00;99.90
20459;DHT22;10388;52.314;7.938;2023-03-01T04:41:28;-6.00;99.90
20459;DHT22;10388;52.314;7.938;2023-03-01T04:43:59;-6.00;99.90
20459;DHT22;10388;52.314;7.938;2023-03-01T04:46:30;-6.00;99.90
20459;DHT22;10388;52.314;7.938;2023-03-01T04:49:01;-6.00;99.90
20459;DHT22;10388;52.314;7.938;2023-03-01T04:51:32;-6.10;99.90
20459;DHT22;10388;52.314;7.938;2023-03-01T04:54:02;-6.10;99.90
20459;DHT22;10388;52.314;7.938;2023-03-01T04:56:33;-6.10;99.90
20459;DHT22;10388;52.314;7.938;2023-03-01T04:59:04;-6.10;99.90
20459;DHT22;10388;52.314;7.938;2023-03-01T05:01:35;-6.20;99.90
20459;DHT22;10388;52.314;7.938;2023-03-01T05:04:07;-6.20;99.90
20459;DHT22;10388;52.314;7.938;2023-03-01T05:06:43;-6.20;99.90
20459;DHT22;10388;52.314;7.938;2023-03-01T05:09:14;-6.20;99.90
20459;DHT22;10388;52.314;7.938;2023-03-01T05:11:45;-6.20;99.90
20459;DHT22;10388;52.314;7.938;2023-03-01T05:14:16;-6.30;99.90
20459;DHT22;10388;52.314;7.938;2023-03-01T05:16:46;-6.20;99.90
20459;DHT22;10388;52.314;7.938;2023-03-01T05:19:17;-6.30;99.90
20459;DHT22;10388;52.314;7.938;2023-03-01T05:21:52;-6.30;99.90
20459;DHT22;10388;52.314;7.938;2023-03-01T05:24:35;-6.30;99.90
20459;DHT22;10388;52.314;7.938;2023-03-01T05:27:05;-6.30;99.90
20459;DHT22;10388;52.314;7.938;2023-03-01T05:29:36;-6.30;99.90
20459;DHT22;10388;52.314;7.938;2023-03-01T05:32:09;-6.30;99.90
20459;DHT22;10388;52.314;7.938;2023-03-01T05:34:44;-6.30;99.90
20459;DHT22;10388;52.314;7.938;2023-03-01T05:37:16;-6.30;99.90
20459;DHT22;10388;52.314;7.938;2023-03-01T05:39:47;-6.30;99.90
20459;DHT22;10388;52.314;7.938;2023-03-01T05:42:20;-6.30;99.90
20459;DHT22;10388;52.314;7.938;2023-03-01T05:44:51;-6.40;99.90
20459;DHT22;10388;52.314;7.938;2023-03-01T05:47:21;-6.40;99.90
20459;DHT22;10388;52.314;7.938;2023-03-01T05:49:52;-6.40;99.90
20459;DHT22;10388;52.314;7.938;2023-03-01T05:52:22;-6.40;99.90
20459;DHT22;10388;52.314;7.938;2023-03-01T05:54:53;-6.40;99.90
20459;DHT22;10388;52.314;7.938;2023-03-01T05:57:23;-6.40;99.90
20459;DHT22;10388;52.314;7.938;2023-03-01T05:59:54;-6.40;99.90
20459;DHT22;10388;52.314;7.938;2023-03-01T06:02:24;-6.40;99.90
20459;DHT22;10388;52.314;7.938;2023-03-01T06:04:55;-6.50;99.90
20459;DHT22;10388;52.314;7.938;2023-03-01T06:07:26;-6.40;99.90
20459;DHT22;10388;52.314;7.938;2023-03-01T06:09:56;-6.40;99.90
20459;DHT22;10388;52.314;7.938;2023-03-01T06:12:33;-6.40;99.90
20459;DHT22;10388;52.314;7.938;2023-03-01T06:15:04;-6.40;99.90
20459;DHT22;10388;52.314;7.938;2023-03-01T06:17:37;-6.50;99.90
20459;DHT22;10388;52.314;7.938;2023-03-01T06:20:17;-6.40;99.90
20459;DHT22;10388;52.314;7.938;2023-03-01T06:22:48;-6.40;99.90
20459;DHT22;10388;52.314;7.938;2023-03-01T06:25:22;-6.40;99.90
20459;DHT22;10388;52.314;7.938;2023-03-01T06:27:53;-6.40;99.90
20459;DHT22;10388;52.314;7.938;2023-03-01T06:30:25;-6.40;99.90
20459;DHT22;10388;52.314;7.938;2023-03-01T06:32:56;-6.50;99.90
20459;DHT22;10388;52.314;7.938;2023-03-01T06:35:31;-6.40;99.90
20459;DHT22;10388;52.314;7.938;2023-03-01T06:38:03;-6.40;99.90
20459;DHT22;10388;52.314;7.938;2023-03-01T06:40:33;-6.40;99.90
20459;DHT22;10388;52.314;7.938;2023-03-01T06:43:05;-6.30;99.90
20459;DHT22;10388;52.314;7.938;2023-03-01T06:45:37;-6.30;99.90
20459;DHT22;10388;52.314;7.938;2023-03-01T06:48:07;-6.30;99.90
20459;DHT22;10388;52.314;7.938;2023-03-01T06:50:38;-6.30;99.90
20459;DHT22;10388;52.314;7.938;2023-03-01T06:53:09;-6.30;99.90
20459;DHT22;10388;52.314;7.938;2023-03-01T06:55:39;-6.20;99.90
20459;DHT22;10388;52.314;7.938;2023-03-01T06:58:10;-6.20;99.90
20459;DHT22;10388;52.314;7.938;2023-03-01T07:00:41;-6.20;99.90
20459;DHT22;10388;52.314;7.938;2023-03-01T07:03:13;-6.10;99.90
20459;DHT22;10388;52.314;7.938;2023-03-01T07:05:43;-6.10;99.90
20459;DHT22;10388;52.314;7.938;2023-03-01T07:08:15;-6.00;99.90
20459;DHT22;10388;52.314;7.938;2023-03-01T07:10:45;-6.00;99.90
20459;DHT22;10388;52.314;7.938;2023-03-01T07:13:16;-5.90;99.90
20459;DHT22;10388;52.314;7.938;2023-03-01T07:15:46;-5.90;99.90
20459;DHT22;10388;52.314;7.938;2023-03-01T07:18:17;-5.90;99.90
20459;DHT22;10388;52.314;7.938;2023-03-01T07:20:47;-5.80;99.90
20459;DHT22;10388;52.314;7.938;2023-03-01T07:23:18;-5.70;99.90
20459;DHT22;10388;52.314;7.938;2023-03-01T07:25:53;-5.60;99.90
20459;DHT22;10388;52.314;7.938;2023-03-01T07:28:24;-5.60;99.90
20459;DHT22;10388;52.314;7.938;2023-03-01T07:30:55;-5.50;99.90
20459;DHT22;10388;52.314;7.938;2023-03-01T07:33:30;-5.30;99.90
20459;DHT22;10388;52.314;7.938;2023-03-01T07:36:02;-5.10;99.90
20459;DHT22;10388;52.314;7.938;2023-03-01T07:38:33;-5.00;99.90
20459;DHT22;10388;52.314;7.938;2023-03-01T07:41:04;-5.00;99.90
20459;DHT22;10388;52.314;7.938;2023-03-01T07:43:35;-4.90;99.90
20459;DHT22;10388;52.314;7.938;2023-03-01T07:46:06;-4.80;99.90
20459;DHT22;10388;52.314;7.938;2023-03-01T07:48:37;-4.70;99.90
20459;DHT22;10388;52.314;7.938;2023-03-01T07:51:07;-4.70;99.90
20459;DHT22;10388;52.314;7.938;2023-03-01T07:53:38;-4.60;99.90
20459;DHT22;10388;52.314;7.938;2023-03-01T07:56:11;-4.50;99.90
20459;DHT22;10388;52.314;7.938;2023-03-01T07:58:42;-4.40;99.90
20459;DHT22;10388;52.314;7.938;2023-03-01T08:01:15;-4.30;99.90
20459;DHT22;10388;52.314;7.938;2023-03-01T08:03:47;-4.10;99.90
20459;DHT22;10388;52.314;7.938;2023-03-01T08:06:18;-4.10;99.90
20459;DHT22;10388;52.314;7.938;2023-03-01T08:08:48;-4.00;99.90
20459;DHT22;10388;52.314;7.938;2023-03-01T08:11:19;-3.90;99.90
20459;DHT22;10388;52.314;7.938;2023-03-01T08:13:49;-3.80;99.90
20459;DHT22;10388;52.314;7.938;2023-03-01T08:16:20;-3.70;99.90
20459;DHT22;10388;52.314;7.938;2023-03-01T08:18:51;-3.60;99.90
20459;DHT22;10388;52.314;7.938;2023-03-01T08:21:21;-3.50;99.90
20459;DHT22;10388;52.314;7.938;2023-03-01T08:23:52;-3.40;99.90
20459;DHT22;10388;52.314;7.938;2023-03-01T08:26:22;-3.30;99.90
20459;DHT22;10388;52.314;7.938;2023-03-01T08:28:53;-3.20;99.90
20459;DHT22;10388;52.314;7.938;2023-03-01T08:31:28;-3.10;99.90
20459;DHT22;10388;52.314;7.938;2023-03-01T08:34:01;-2.90;99.90
20459;DHT22;10388;52.314;7.938;2023-03-01T08:36:36;-2.80;99.90
20459;DHT22;10388;52.314;7.938;2023-03-01T08:39:09;-2.70;99.90
20459;DHT22;10388;52.314;7.938;2023-03-01T08:41:39;-2.40;99.90
20459;DHT22;10388;52.314;7.938;2023-03-01T08:44:11;-2.20;99.90
20459;DHT22;10388;52.314;7.938;2023-03-01T08:46:43;-2.10;99.90
20459;DHT22;10388;52.314;7.938;2023-03-01T08:49:16;-2.00;99.90
20459;DHT22;10388;52.314;7.938;2023-03-01T08:51:47;-1.80;99.90
20459;DHT22;10388;52.314;7.938;2023-03-01T08:54:21;-1.70;99.90
20459;DHT22;10388;52.314;7.938;2023-03-01T08:56:51;-1.60;99.90
20459;DHT22;10388;52.314;7.938;2023-03-01T08:59:22;-1.50;99.90
20459;DHT22;10388;52.314;7.938;2023-03-01T09:01:52;-1.30;99.90
20459;DHT22;10388;52.314;7.938;2023-03-01T09:04:23;-1.10;99.90
20459;DHT22;10388;52.314;7.938;2023-03-01T09:06:53;-0.80;99.90
20459;DHT22;10388;52.314;7.938;2023-03-01T09:09:24;-0.50;99.90
20459;DHT22;10388;52.314;7.938;2023-03-01T09:11:54;-0.30;99.90
20459;DHT22;10388;52.314;7.938;2023-03-01T09:14:25;-0.10;99.90
20459;DHT22;10388;52.314;7.938;2023-03-01T09:16:57;0.30;99.90
20459;DHT22;10388;52.314;7.938;2023-03-01T09:19:28;0.50;99.90
20459;DHT22;10388;52.314;7.938;2023-03-01T09:21:58;0.70;99.90
20459;DHT22;10388;52.314;7.938;2023-03-01T09:24:29;0.70;99.90
20459;DHT22;10388;52.314;7.938;2023-03-01T09:26:59;0.70;99.90
20459;DHT22;10388;52.314;7.938;2023-03-01T09:29:31;1.00;99.90
20459;DHT22;10388;52.314;7.938;2023-03-01T09:32:01;1.30;99.90
20459;DHT22;10388;52.314;7.938;2023-03-01T09:34:32;1.30;99.90
20459;DHT22;10388;52.314;7.938;2023-03-01T09:37:22;1.40;99.90
20459;DHT22;10388;52.314;7.938;2023-03-01T09:39:53;2.00;99.90
20459;DHT22;10388;52.314;7.938;2023-03-01T09:42:24;2.00;99.90
20459;DHT22;10388;52.314;7.938;2023-03-01T09:45:02;1.90;99.90
20459;DHT22;10388;52.314;7.938;2023-03-01T09:47:35;2.00;99.90
20459;DHT22;10388;52.314;7.938;2023-03-01T09:50:15;2.10;99.90
20459;DHT22;10388;52.314;7.938;2023-03-01T09:55:45;2.40;99.90
20459;DHT22;10388;52.314;7.938;2023-03-01T10:07:02;2.90;99.90
20459;DHT22;10388;52.314;7.938;2023-03-01T10:09:38;3.00;99.90
20459;DHT22;10388;52.314;7.938;2023-03-01T10:14:56;3.20;99.90
20459;DHT22;10388;52.314;7.938;2023-03-01T10:17:34;3.10;99.90
20459;DHT22;10388;52.314;7.938;2023-03-01T10:20:29;3.20;99.90
20459;DHT22;10388;52.314;7.938;2023-03-01T10:23:04;3.20;99.90
20459;DHT22;10388;52.314;7.938;2023-03-01T10:26:09;3.50;99.90
20459;DHT22;10388;52.314;7.938;2023-03-01T10:29:08;3.60;99.90
20459;DHT22;10388;52.314;7.938;2023-03-01T10:34:18;3.70;99.90
20459;DHT22;10388;52.314;7.938;2023-03-01T10:36:57;3.70;99.90
20459;DHT22;10388;52.314;7.938;2023-03-01T10:39:28;3.70;99.90
20459;DHT22;10388;52.314;7.938;2023-03-01T10:42:04;3.80;99.90
20459;DHT22;10388;52.314;7.938;2023-03-01T10:47:20;3.90;99.90
20459;DHT22;10388;52.314;7.938;2023-03-01T10:49:56;4.10;99.90
20459;DHT22;10388;52.314;7.938;2023-03-01T10:52:37;4.10;99.90
20459;DHT22;10388;52.314;7.938;2023-03-01T10:55:40;4.10;99.90
20459;DHT22;10388;52.314;7.938;2023-03-01T10:58:18;4.20;99.90
20459;DHT22;10388;52.314;7.938;2023-03-01T11:00:52;4.20;99.90
20459;DHT22;10388;52.314;7.938;2023-03-01T11:03:33;4.30;99.90
20459;DHT22;10388;52.314;7.938;2023-03-01T11:06:24;4.40;99.90
20459;DHT22;10388;52.314;7.938;2023-03-01T11:08:56;4.60;99.90
20459;DHT22;10388;52.314;7.938;2023-03-01T11:11:34;4.50;99.90
20459;DHT22;10388;52.314;7.938;2023-03-01T11:14:25;4.60;99.90
20459;DHT22;10388;52.314;7.938;2023-03-01T11:17:03;4.70;99.90
20459;DHT22;10388;52.314;7.938;2023-03-01T11:19:34;4.80;99.90
20459;DHT22;10388;52.314;7.938;2023-03-01T11:22:12;4.70;99.90
20459;DHT22;10388;52.314;7.938;2023-03-01T11:24:49;4.80;99.90
20459;DHT22;10388;52.314;7.938;2023-03-01T11:27:26;4.70;99.90
20459;DHT22;10388;52.314;7.938;2023-03-01T11:30:12;4.80;99.90
20459;DHT22;10388;52.314;7.938;2023-03-01T11:32:56;4.80;99.90
20459;DHT22;10388;52.314;7.938;2023-03-01T11:35:30;4.80;99.90
20459;DHT22;10388;52.314;7.938;2023-03-01T11:38:22;4.90;99.90
20459;DHT22;10388;52.314;7.938;2023-03-01T11:43:33;5.20;99.90
20459;DHT22;10388;52.314;7.938;2023-03-01T11:51:56;5.40;99.90
20459;DHT22;10388;52.314;7.938;2023-03-01T11:54:52;5.50;99.90
20459;DHT22;10388;52.314;7.938;2023-03-01T12:03:25;5.50;99.90
20459;DHT22;10388;52.314;7.938;2023-03-01T12:18:15;5.80;99.90
20459;DHT22;10388;52.314;7.938;2023-03-01T12:21:19;5.80;99.90
20459;DHT22;10388;52.314;7.938;2023-03-01T12:24:36;6.00;99.90
20459;DHT22;10388;52.314;7.938;2023-03-01T12:32:36;5.90;99.90
20459;DHT22;10388;52.314;7.938;2023-03-01T12:35:39;5.90;99.90
20459;DHT22;10388;52.314;7.938;2023-03-01T12:38:32;6.00;99.90
20459;DHT22;10388;52.314;7.938;2023-03-01T12:41:40;6.10;99.90
20459;DHT22;10388;52.314;7.938;2023-03-01T12:47:05;6.20;99.90
20459;DHT22;10388;52.314;7.938;2023-03-01T12:49:49;6.20;99.90
20459;DHT22;10388;52.314;7.938;2023-03-01T12:55:01;6.10;99.90
20459;DHT22;10388;52.314;7.938;2023-03-01T12:57:43;6.30;99.90
20459;DHT22;10388;52.314;7.938;2023-03-01T13:00:29;6.40;99.90
20459;DHT22;10388;52.314;7.938;2023-03-01T13:03:19;6.40;99.90
20459;DHT22;10388;52.314;7.938;2023-03-01T13:06:12;6.40;99.90
20459;DHT22;10388;52.314;7.938;2023-03-01T13:11:58;6.50;99.90
20459;DHT22;10388;52.314;7.938;2023-03-01T13:17:02;6.80;99.90
20459;DHT22;10388;52.314;7.938;2023-03-01T13:19:33;6.60;99.90
20459;DHT22;10388;52.314;7.938;2023-03-01T13:22:25;6.80;99.90
20459;DHT22;10388;52.314;7.938;2023-03-01T13:25:10;6.60;99.90
20459;DHT22;10388;52.314;7.938;2023-03-01T13:27:42;6.90;99.90
20459;DHT22;10388;52.314;7.938;2023-03-01T13:30:45;7.00;99.90
20459;DHT22;10388;52.314;7.938;2023-03-01T13:33:39;7.20;99.90
20459;DHT22;10388;52.314;7.938;2023-03-01T13:36:11;7.20;99.90
20459;DHT22;10388;52.314;7.938;2023-03-01T13:38:47;7.30;99.90
20459;DHT22;10388;52.314;7.938;2023-03-01T13:46:44;7.40;99.90
20459;DHT22;10388;52.314;7.938;2023-03-01T13:49:23;7.60;99.90
20459;DHT22;10388;52.314;7.938;2023-03-01T13:51:54;7.80;99.90
20459;DHT22;10388;52.314;7.938;2023-03-01T13:54:32;7.40;99.90
20459;DHT22;10388;52.314;7.938;2023-03-01T13:57:03;7.30;99.90
20459;DHT22;10388;52.314;7.938;2023-03-01T13:59:46;7.60;99.90
20459;DHT22;10388;52.314;7.938;2023-03-01T14:02:17;7.50;99.90
20459;DHT22;10388;52.314;7.938;2023-03-01T14:05:00;7.50;99.90
20459;DHT22;10388;52.314;7.938;2023-03-01T14:07:31;7.50;99.90
20459;DHT22;10388;52.314;7.938;2023-03-01T14:10:03;7.40;99.90
20459;DHT22;10388;52.314;7.938;2023-03-01T14:12:45;7.50;99.90
20459;DHT22;10388;52.314;7.938;2023-03-01T14:15:31;7.60;99.90
20459;DHT22;10388;52.314;7.938;2023-03-01T14:18:22;7.60;99.90
20459;DHT22;10388;52.314;7.938;2023-03-01T14:20:55;7.40;99.90
20459;DHT22;10388;52.314;7.938;2023-03-01T14:23:26;7.30;99.90
20459;DHT22;10388;52.314;7.938;2023-03-01T14:25:57;7.30;99.90
20459;DHT22;10388;52.314;7.938;2023-03-01T14:28:32;7.40;99.90
20459;DHT22;10388;52.314;7.938;2023-03-01T14:31:35;7.20;99.90
20459;DHT22;10388;52.314;7.938;2023-03-01T14:34:05;7.30;99.90
20459;DHT22;10388;52.314;7.938;2023-03-01T14:36:36;7.20;99.90
20459;DHT22;10388;52.314;7.938;2023-03-01T14:39:20;7.10;99.90
20459;DHT22;10388;52.314;7.938;2023-03-01T14:41:51;7.00;99.90
20459;DHT22;10388;52.314;7.938;2023-03-01T14:44:23;7.10;99.90
20459;DHT22;10388;52.314;7.938;2023-03-01T14:46:55;7.20;99.90
20459;DHT22;10388;52.314;7.938;2023-03-01T14:49:30;7.10;99.90
20459;DHT22;10388;52.314;7.938;2023-03-01T14:52:04;7.20;99.90
20459;DHT22;10388;52.314;7.938;2023-03-01T14:54:47;7.30;99.90
20459;DHT22;10388;52.314;7.938;2023-03-01T14:57:24;7.20;99.90
20459;DHT22;10388;52.314;7.938;2023-03-01T14:59:58;7.30;99.90
20459;DHT22;10388;52.314;7.938;2023-03-01T15:02:31;7.30;99.90
20459;DHT22;10388;52.314;7.938;2023-03-01T15:05:03;7.10;99.90
20459;DHT22;10388;52.314;7.938;2023-03-01T15:07:38;7.10;99.90
20459;DHT22;10388;52.314;7.938;2023-03-01T15:10:22;7.10;99.90
20459;DHT22;10388;52.314;7.938;2023-03-01T15:12:53;7.00;99.90
20459;DHT22;10388;52.314;7.938;2023-03-01T15:15:33;7.10;99.90
20459;DHT22;10388;52.314;7.938;2023-03-01T15:18:22;7.00;99.90
20459;DHT22;10388;52.314;7.938;2023-03-01T15:20:56;7.10;99.90
20459;DHT22;10388;52.314;7.938;2023-03-01T15:23:37;7.00;99.90
20459;DHT22;10388;52.314;7.938;2023-03-01T15:26:23;6.80;99.90
20459;DHT22;10388;52.314;7.938;2023-03-01T15:28:56;6.80;99.90
20459;DHT22;10388;52.314;7.938;2023-03-01T15:31:32;6.80;99.90
20459;DHT22;10388;52.314;7.938;2023-03-01T15:34:23;6.80;99.90
20459;DHT22;10388;52.314;7.938;2023-03-01T15:36:55;6.80;99.90
20459;DHT22;10388;52.314;7.938;2023-03-01T15:39:32;6.60;99.90
20459;DHT22;10388;52.314;7.938;2023-03-01T15:47:56;6.40;99.90
20459;DHT22;10388;52.314;7.938;2023-03-01T15:50:30;6.30;99.90
20459;DHT22;10388;52.314;7.938;2023-03-01T15:53:13;6.20;99.90
20459;DHT22;10388;52.314;7.938;2023-03-01T15:55:44;6.20;99.90
20459;DHT22;10388;52.314;7.938;2023-03-01T15:58:22;6.20;99.90
20459;DHT22;10388;52.314;7.938;2023-03-01T16:00:53;6.20;99.90
20459;DHT22;10388;52.314;7.938;2023-03-01T16:03:27;6.20;99.90
20459;DHT22;10388;52.314;7.938;2023-03-01T16:05:57;6.10;99.90
20459;DHT22;10388;52.314;7.938;2023-03-01T16:08:28;6.00;99.90
20459;DHT22;10388;52.314;7.938;2023-03-01T16:10:59;6.00;99.90
20459;DHT22;10388;52.314;7.938;2023-03-01T16:13:30;6.00;99.90
20459;DHT22;10388;52.314;7.938;2023-03-01T16:16:01;5.90;99.90
20459;DHT22;10388;52.314;7.938;2023-03-01T16:18:32;5.90;99.90
20459;DHT22;10388;52.314;7.938;2023-03-01T16:21:02;5.90;99.90
20459;DHT22;10388;52.314;7.938;2023-03-01T16:23:33;5.80;99.90
20459;DHT22;10388;52.314;7.938;2023-03-01T16:26:04;5.80;99.90
20459;DHT22;10388;52.314;7.938;2023-03-01T16:28:34;5.70;99.90
20459;DHT22;10388;52.314;7.938;2023-03-01T16:31:04;5.70;99.90
20459;DHT22;10388;52.314;7.938;2023-03-01T16:33:36;5.60;99.90
20459;DHT22;10388;52.314;7.938;2023-03-01T16:36:11;5.60;99.90
20459;DHT22;10388;52.314;7.938;2023-03-01T16:38:41;5.50;99.90
20459;DHT22;10388;52.314;7.938;2023-03-01T16:41:18;5.40;99.90
20459;DHT22;10388;52.314;7.938;2023-03-01T16:43:49;5.40;99.90
20459;DHT22;10388;52.314;7.938;2023-03-01T16:46:24;5.30;99.90
20459;DHT22;10388;52.314;7.938;2023-03-01T16:48:55;5.20;99.90
20459;DHT22;10388;52.314;7.938;2023-03-01T16:51:25;5.20;99.90
20459;DHT22;10388;52.314;7.938;2023-03-01T16:53:56;5.10;99.90
20459;DHT22;10388;52.314;7.938;2023-03-01T16:56:26;5.00;99.90
20459;DHT22;10388;52.314;7.938;2023-03-01T16:58:57;5.00;99.90
20459;DHT22;10388;52.314;7.938;2023-03-01T17:01:28;4.90;99.90
20459;DHT22;10388;52.314;7.938;2023-03-01T17:04:05;4.80;99.90
20459;DHT22;10388;52.314;7.938;2023-03-01T17:06:35;4.80;99.90
20459;DHT22;10388;52.314;7.938;2023-03-01T17:09:06;4.70;99.90
20459;DHT22;10388;52.314;7.938;2023-03-01T17:11:37;4.60;99.90
20459;DHT22;10388;52.314;7.938;2023-03-01T17:14:07;4.40;99.90
20459;DHT22;10388;52.314;7.938;2023-03-01T17:16:38;4.40;99.90
20459;DHT22;10388;52.314;7.938;2023-03-01T17:19:09;4.30;99.90
20459;DHT22;10388;52.314;7.938;2023-03-01T17:21:39;4.20;99.90
20459;DHT22;10388;52.314;7.938;2023-03-01T17:24:10;4.00;99.90
20459;DHT22;10388;52.314;7.938;2023-03-01T17:26:41;3.90;99.90
20459;DHT22;10388;52.314;7.938;2023-03-01T17:29:12;3.90;99.90
20459;DHT22;10388;52.314;7.938;2023-03-01T17:31:43;3.80;99.90
20459;DHT22;10388;52.314;7.938;2023-03-01T17:34:13;3.60;99.90
20459;DHT22;10388;52.314;7.938;2023-03-01T17:36:45;3.40;99.90
20459;DHT22;10388;52.314;7.938;2023-03-01T17:39:17;3.30;99.90
20459;DHT22;10388;52.314;7.938;2023-03-01T17:41:55;3.30;99.90
20459;DHT22;10388;52.314;7.938;2023-03-01T17:44:26;3.20;99.90
20459;DHT22;10388;52.314;7.938;2023-03-01T17:46:56;3.10;99.90
20459;DHT22;10388;52.314;7.938;2023-03-01T17:49:27;2.90;99.90
20459;DHT22;10388;52.314;7.938;2023-03-01T17:51:59;2.80;99.90
20459;DHT22;10388;52.314;7.938;2023-03-01T17:54:29;2.70;99.90
20459;DHT22;10388;52.314;7.938;2023-03-01T17:57:02;2.60;99.90
20459;DHT22;10388;52.314;7.938;2023-03-01T17:59:36;2.50;99.90
20459;DHT22;10388;52.314;7.938;2023-03-01T18:02:06;2.40;99.90
20459;DHT22;10388;52.314;7.938;2023-03-01T18:04:37;2.30;99.90
20459;DHT22;10388;52.314;7.938;2023-03-01T18:07:07;2.30;99.90
20459;DHT22;10388;52.314;7.938;2023-03-01T18:09:38;2.20;99.90
20459;DHT22;10388;52.314;7.938;2023-03-01T18:12:08;2.10;99.90
20459;DHT22;10388;52.314;7.938;2023-03-01T18:14:40;2.10;99.90
20459;DHT22;10388;52.314;7.938;2023-03-01T18:17:10;2.00;99.90
20459;DHT22;10388;52.314;7.938;2023-03-01T18:19:41;2.00;99.90
20459;DHT22;10388;52.314;7.938;2023-03-01T18:22:12;2.00;99.90
20459;DHT22;10388;52.314;7.938;2023-03-01T18:24:43;1.90;99.90
20459;DHT22;10388;52.314;7.938;2023-03-01T18:27:14;1.80;99.90
20459;DHT22;10388;52.314;7.938;2023-03-01T18:29:44;1.70;99.90
20459;DHT22;10388;52.314;7.938;2023-03-01T18:32:15;1.60;99.90
20459;DHT22;10388;52.314;7.938;2023-03-01T18:34:46;1.50;99.90
20459;DHT22;10388;52.314;7.938;2023-03-01T18:37:17;1.40;99.90
20459;DHT22;10388;52.314;7.938;2023-03-01T18:39:51;1.30;99.90
20459;DHT22;10388;52.314;7.938;2023-03-01T18:42:22;1.30;99.90
20459;DHT22;10388;52.314;7.938;2023-03-01T18:44:53;1.20;99.90
20459;DHT22;10388;52.314;7.938;2023-03-01T18:47:23;1.10;99.90
20459;DHT22;10388;52.314;7.938;2023-03-01T18:49:54;1.00;99.90
20459;DHT22;10388;52.314;7.938;2023-03-01T18:52:25;0.90;99.90
20459;DHT22;10388;52.314;7.938;2023-03-01T18:54:55;0.80;99.90
20459;DHT22;10388;52.314;7.938;2023-03-01T18:57:26;0.70;99.90
20459;DHT22;10388;52.314;7.938;2023-03-01T18:59:57;0.80;99.90
20459;DHT22;10388;52.314;7.938;2023-03-01T19:02:27;0.80;99.90
20459;DHT22;10388;52.314;7.938;2023-03-01T19:04:58;0.80;99.90
20459;DHT22;10388;52.314;7.938;2023-03-01T19:07:28;0.70;99.90
20459;DHT22;10388;52.314;7.938;2023-03-01T19:09:59;0.80;99.90
20459;DHT22;10388;52.314;7.938;2023-03-01T19:12:30;0.70;99.90
20459;DHT22;10388;52.314;7.938;2023-03-01T19:15:00;0.60;99.90
20459;DHT22;10388;52.314;7.938;2023-03-01T19:17:31;0.50;99.90
20459;DHT22;10388;52.314;7.938;2023-03-01T19:20:03;0.50;99.90
20459;DHT22;10388;52.314;7.938;2023-03-01T19:22:34;0.40;99.90
20459;DHT22;10388;52.314;7.938;2023-03-01T19:25:05;0.30;99.90
20459;DHT22;10388;52.314;7.938;2023-03-01T19:27:36;0.20;99.90
20459;DHT22;10388;52.314;7.938;2023-03-01T19:30:07;0.10;99.90
20459;DHT22;10388;52.314;7.938;2023-03-01T19:32:38;0.00;99.90
20459;DHT22;10388;52.314;7.938;2023-03-01T19:35:09;-0.10;99.90
20459;DHT22;10388;52.314;7.938;2023-03-01T19:37:39;-0.20;99.90
20459;DHT22;10388;52.314;7.938;2023-03-01T19:40:10;-0.20;99.90
20459;DHT22;10388;52.314;7.938;2023-03-01T19:42:41;-0.30;99.90
20459;DHT22;10388;52.314;7.938;2023-03-01T19:45:11;-0.30;99.90
20459;DHT22;10388;52.314;7.938;2023-03-01T19:47:46;-0.40;99.90
20459;DHT22;10388;52.314;7.938;2023-03-01T19:50:17;-0.40;99.90
20459;DHT22;10388;52.314;7.938;2023-03-01T19:52:47;-0.50;99.90
20459;DHT22;10388;52.314;7.938;2023-03-01T19:55:18;-0.50;99.90
20459;DHT22;10388;52.314;7.938;2023-03-01T19:57:48;-0.60;99.90
20459;DHT22;10388;52.314;7.938;2023-03-01T20:00:19;-0.70;99.90
20459;DHT22;10388;52.314;7.938;2023-03-01T20:02:49;-0.70;99.90
20459;DHT22;10388;52.314;7.938;2023-03-01T20:05:20;-0.70;99.90
20459;DHT22;10388;52.314;7.938;2023-03-01T20:07:53;-0.80;99.90
20459;DHT22;10388;52.314;7.938;2023-03-01T20:10:29;-0.80;99.90
20459;DHT22;10388;52.314;7.938;2023-03-01T20:13:00;-0.80;99.90
20459;DHT22;10388;52.314;7.938;2023-03-01T20:15:31;-0.80;99.90
20459;DHT22;10388;52.314;7.938;2023-03-01T20:18:02;-0.90;99.90
20459;DHT22;10388;52.314;7.938;2023-03-01T20:20:33;-0.90;99.90
20459;DHT22;10388;52.314;7.938;2023-03-01T20:23:04;-1.00;99.90
20459;DHT22;10388;52.314;7.938;2023-03-01T20:25:34;-1.10;99.90
20459;DHT22;10388;52.314;7.938;2023-03-01T20:28:05;-1.10;99.90
20459;DHT22;10388;52.314;7.938;2023-03-01T20:30:39;-1.20;99.90
20459;DHT22;10388;52.314;7.938;2023-03-01T20:33:10;-1.20;99.90
20459;DHT22;10388;52.314;7.938;2023-03-01T20:35:41;-1.20;99.90
20459;DHT22;10388;52.314;7.938;2023-03-01T20:38:12;-1.30;99.90
20459;DHT22;10388;52.314;7.938;2023-03-01T20:40:42;-1.40;99.90
20459;DHT22;10388;52.314;7.938;2023-03-01T20:43:13;-1.40;99.90
20459;DHT22;10388;52.314;7.938;2023-03-01T20:45:43;-1.40;99.90
20459;DHT22;10388;52.314;7.938;2023-03-01T20:48:14;-1.40;99.90
20459;DHT22;10388;52.314;7.938;2023-03-01T20:50:45;-1.40;99.90
20459;DHT22;10388;52.314;7.938;2023-03-01T20:53:15;-1.50;99.90
20459;DHT22;10388;52.314;7.938;2023-03-01T20:55:46;-1.50;99.90
20459;DHT22;10388;52.314;7.938;2023-03-01T20:58:16;-1.60;99.90
20459;DHT22;10388;52.314;7.938;2023-03-01T21:00:49;-1.60;99.90
20459;DHT22;10388;52.314;7.938;2023-03-01T21:03:21;-1.60;99.90
20459;DHT22;10388;52.314;7.938;2023-03-01T21:05:57;-1.70;99.90
20459;DHT22;10388;52.314;7.938;2023-03-01T21:08:29;-1.70;99.90